createdAt,value
2019-05-21T00:00:20.455Z,28.9
2019-05-21T00:01:22.904Z,28.6
2019-05-21T00:02:25.074Z,28.8
2019-05-21T00:03:27.516Z,28.7
2019-05-21T00:04:29.954Z,28.7
2019-05-21T00:05:32.118Z,28.6
2019-05-21T00:06:34.007Z,28.3
2019-05-21T00:07:36.435Z,28.9
2019-05-21T00:08:38.874Z,28.9
2019-05-21T00:09:41.296Z,28.3
2019-05-21T00:10:43.744Z,28.6
2019-05-21T00:11:46.176Z,28.3
2019-05-21T00:12:48.602Z,28.5
2019-05-21T00:13:50.800Z,28.8
2019-05-21T00:14:53.440Z,28.7
2019-05-21T00:15:55.860Z,28.9
2019-05-21T00:16:58.287Z,28.9
2019-05-21T00:18:00.719Z,28.9
2019-05-21T00:19:02.860Z,29.1
2019-05-21T00:20:04.744Z,28.4
2019-05-21T00:21:06.917Z,28.9
2019-05-21T00:22:09.087Z,28.7
2019-05-21T00:23:11.582Z,29.1
2019-05-21T00:24:14.006Z,28.8
2019-05-21T00:25:17.259Z,28.6
2019-05-21T00:26:19.086Z,28.8
2019-05-21T00:27:21.256Z,28.9
2019-05-21T00:28:23.426Z,28.4
2019-05-21T00:29:25.574Z,28.6
2019-05-21T00:30:27.719Z,29
2019-05-21T00:31:30.195Z,28.9
2019-05-21T00:32:32.357Z,28.6
2019-05-21T00:33:34.804Z,28.6
2019-05-21T00:34:43.732Z,29
2019-05-21T00:35:42.219Z,28.9
2019-05-21T00:36:44.384Z,28.8
2019-05-21T00:37:46.817Z,28.8
2019-05-21T00:38:51.708Z,29.1
2019-05-21T00:39:53.677Z,28.8
2019-05-21T00:40:56.122Z,28.9
2019-05-21T00:41:57.714Z,29.1
2019-05-21T00:42:59.614Z,28.8
2019-05-21T00:44:01.796Z,28.7
2019-05-21T00:45:04.230Z,28.8
2019-05-21T00:46:06.376Z,28.8
2019-05-21T00:47:08.841Z,28.7
2019-05-21T00:48:11.292Z,28.8
2019-05-21T00:49:13.654Z,28.5
2019-05-21T00:50:15.811Z,29
2019-05-21T00:51:18.233Z,28.6
2019-05-21T00:52:20.490Z,29
2019-05-21T00:53:22.920Z,28.9
2019-05-21T00:54:25.076Z,29
2019-05-21T00:55:27.516Z,29
2019-05-21T00:56:29.962Z,28.8
2019-05-21T00:57:32.401Z,29
2019-05-21T00:58:34.566Z,28.7
2019-05-21T00:59:36.996Z,29.1
2019-05-21T01:00:38.873Z,28.9
2019-05-21T01:01:41.322Z,28.6
2019-05-21T01:02:43.757Z,28.9
2019-05-21T01:03:46.323Z,28.9
2019-05-21T01:04:59.994Z,28.7
2019-05-21T01:05:53.736Z,28.7
2019-05-21T01:06:55.892Z,28.8
2019-05-21T01:07:58.344Z,28.6
2019-05-21T01:09:00.774Z,28.4
2019-05-21T01:10:03.288Z,28.7
2019-05-21T01:11:05.740Z,28.6
2019-05-21T01:12:07.895Z,29
2019-05-21T01:13:10.329Z,28.9
2019-05-21T01:14:12.492Z,29.1
2019-05-21T01:15:14.395Z,28.9
2019-05-21T01:16:16.563Z,28.8
2019-05-21T01:17:18.706Z,28.9
2019-05-21T01:18:21.157Z,28.6
2019-05-21T01:19:23.307Z,29.2
2019-05-21T01:20:25.779Z,29
2019-05-21T01:21:28.219Z,29
2019-05-21T01:22:30.664Z,29.1
2019-05-21T01:23:33.104Z,28.9
2019-05-21T01:24:35.278Z,28.8
2019-05-21T01:25:37.161Z,29.1
2019-05-21T01:26:39.066Z,28.8
2019-05-21T01:27:41.530Z,29
2019-05-21T01:28:43.963Z,29.2
2019-05-21T01:29:46.404Z,28.7
2019-05-21T01:30:48.587Z,29.1
2019-05-21T01:31:50.758Z,28.8
2019-05-21T01:32:53.181Z,29.1
2019-05-21T01:33:55.614Z,28.9
2019-05-21T01:34:57.755Z,29.1
2019-05-21T01:36:04.662Z,29.2
2019-05-21T01:37:06.842Z,28.8
2019-05-21T01:38:09.335Z,28.7
2019-05-21T01:39:11.244Z,28.9
2019-05-21T01:40:13.664Z,29.1
2019-05-21T01:41:16.092Z,29
2019-05-21T01:42:18.250Z,29.2
2019-05-21T01:43:20.673Z,28.7
2019-05-21T01:44:23.102Z,28.9
2019-05-21T01:45:25.266Z,28.9
2019-05-21T01:46:27.709Z,29.1
2019-05-21T01:47:29.862Z,29.2
2019-05-21T01:48:32.305Z,28.9
2019-05-21T01:49:34.455Z,28.8
2019-05-21T01:50:36.892Z,28.8
2019-05-21T01:51:39.243Z,28.8
2019-05-21T01:52:41.686Z,28.9
2019-05-21T01:53:43.868Z,29.1
2019-05-21T01:54:45.999Z,28.8
2019-05-21T01:55:48.419Z,28.9
2019-05-21T01:56:50.648Z,29
2019-05-21T01:57:52.825Z,29.1
2019-05-21T01:58:54.993Z,29
2019-05-21T01:59:57.144Z,29
2019-05-21T02:00:59.580Z,29.2
2019-05-21T02:02:02.447Z,29.1
2019-05-21T02:03:04.345Z,28.8
2019-05-21T02:04:06.478Z,28.9
2019-05-21T02:05:08.634Z,28.8
2019-05-21T02:06:11.066Z,28.8
2019-05-21T02:07:13.523Z,28.7
2019-05-21T02:08:16.000Z,29.1
2019-05-21T02:09:18.427Z,28.9
2019-05-21T02:10:20.863Z,29
2019-05-21T02:11:23.045Z,29.1
2019-05-21T02:12:25.215Z,28.8
2019-05-21T02:13:27.648Z,28.9
2019-05-21T02:14:30.085Z,29
2019-05-21T02:15:32.235Z,29.2
2019-05-21T02:16:33.590Z,29
2019-05-21T02:17:36.030Z,28.8
2019-05-21T02:18:38.192Z,28.9
2019-05-21T02:19:40.413Z,28.8
2019-05-21T02:20:42.857Z,28.7
2019-05-21T02:21:45.017Z,29.1
2019-05-21T02:22:47.150Z,29.1
2019-05-21T02:23:49.337Z,28.9
2019-05-21T02:24:51.498Z,29
2019-05-21T02:25:53.678Z,29.2
2019-05-21T02:26:56.325Z,29
2019-05-21T02:27:58.214Z,29
2019-05-21T02:29:00.636Z,28.6
2019-05-21T02:30:03.749Z,29
2019-05-21T02:31:10.806Z,29.2
2019-05-21T02:32:13.836Z,28.9
2019-05-21T02:33:16.264Z,29.1
2019-05-21T02:34:18.458Z,29
2019-05-21T02:35:20.886Z,28.7
2019-05-21T02:36:23.329Z,29.1
2019-05-21T02:37:25.486Z,28.9
2019-05-21T02:38:28.518Z,29.1
2019-05-21T02:39:30.947Z,28.9
2019-05-21T02:40:33.109Z,28.7
2019-05-21T02:41:35.257Z,28.8
2019-05-21T02:42:37.687Z,29.1
2019-05-21T02:43:39.863Z,29
2019-05-21T02:44:42.277Z,28.9
2019-05-21T02:45:44.711Z,28.9
2019-05-21T02:46:47.157Z,29
2019-05-21T02:47:49.586Z,29.1
2019-05-21T02:48:52.018Z,29.2
2019-05-21T02:49:53.904Z,28.9
2019-05-21T02:50:56.350Z,28.9
2019-05-21T02:51:58.797Z,28.9
2019-05-21T02:53:01.213Z,29
2019-05-21T02:54:03.726Z,29
2019-05-21T02:55:06.147Z,29.1
2019-05-21T02:56:08.588Z,29.2
2019-05-21T02:57:10.764Z,29
2019-05-21T02:58:13.208Z,29.1
2019-05-21T02:59:15.647Z,29
2019-05-21T03:00:18.673Z,28.9
2019-05-21T03:01:20.896Z,29.2
2019-05-21T03:02:23.070Z,29
2019-05-21T03:03:25.237Z,29.1
2019-05-21T03:04:27.677Z,28.6
2019-05-21T03:05:29.817Z,29
2019-05-21T03:06:31.976Z,28.9
2019-05-21T03:07:34.117Z,29.1
2019-05-21T03:08:36.289Z,28.7
2019-05-21T03:09:38.808Z,28.9
2019-05-21T03:10:41.236Z,28.7
2019-05-21T03:11:43.670Z,28.5
2019-05-21T03:12:46.101Z,28.8
2019-05-21T03:13:48.262Z,29.1
2019-05-21T03:14:50.690Z,28.4
2019-05-21T03:15:52.836Z,28.5
2019-05-21T03:16:55.288Z,29
2019-05-21T03:17:57.443Z,28.9
2019-05-21T03:18:59.874Z,28.7
2019-05-21T03:20:02.340Z,28.5
2019-05-21T03:21:04.804Z,28.2
2019-05-21T03:22:06.946Z,28.4
2019-05-21T03:23:09.375Z,28.7
2019-05-21T03:24:11.577Z,28.7
2019-05-21T03:25:14.014Z,28.3
2019-05-21T03:26:16.448Z,28.5
2019-05-21T03:27:18.738Z,28.5
2019-05-21T03:28:21.218Z,28.6
2019-05-21T03:29:23.667Z,28.6
2019-05-21T03:30:26.088Z,28.2
2019-05-21T03:31:28.522Z,28.3
2019-05-21T03:32:30.158Z,28.5
2019-05-21T03:33:32.638Z,28.5
2019-05-21T03:34:34.853Z,28.2
2019-05-21T03:35:37.557Z,28.4
2019-05-21T03:36:39.750Z,28.6
2019-05-21T03:37:42.195Z,28.4
2019-05-21T03:38:44.636Z,28.1
2019-05-21T03:39:47.085Z,28.4
2019-05-21T03:40:49.519Z,28.3
2019-05-21T03:41:51.678Z,28.2
2019-05-21T03:42:54.112Z,28.3
2019-05-21T03:43:56.578Z,28.3
2019-05-21T03:45:00.605Z,28.5
2019-05-21T03:46:07.500Z,28.4
2019-05-21T03:47:09.677Z,28.3
2019-05-21T03:48:12.283Z,28.4
2019-05-21T03:49:14.774Z,28.5
2019-05-21T03:50:17.011Z,28.3
2019-05-21T03:51:19.216Z,28.3
2019-05-21T03:52:21.660Z,28.6
2019-05-21T03:53:24.104Z,28.2
2019-05-21T03:54:26.550Z,28.2
2019-05-21T03:55:29.038Z,28.3
2019-05-21T03:56:31.486Z,28.5
2019-05-21T03:57:33.387Z,28.2
2019-05-21T03:58:35.868Z,28.2
2019-05-21T03:59:38.089Z,28.2
2019-05-21T04:00:40.543Z,28.2
2019-05-21T04:01:42.702Z,28.4
2019-05-21T04:02:44.559Z,28.4
2019-05-21T04:03:46.975Z,28.3
2019-05-21T04:04:49.408Z,28.3
2019-05-21T04:05:51.881Z,28.2
2019-05-21T04:06:54.307Z,28.3
2019-05-21T04:07:57.085Z,28.1
2019-05-21T04:08:59.507Z,28.4
2019-05-21T04:10:02.017Z,28.1
2019-05-21T04:11:04.190Z,28.1
2019-05-21T04:12:06.642Z,28.1
2019-05-21T04:13:09.155Z,27.9
2019-05-21T04:14:11.612Z,28
2019-05-21T04:15:13.792Z,27.9
2019-05-21T04:16:16.235Z,28
2019-05-21T04:17:18.106Z,28
2019-05-21T04:18:20.603Z,28.2
2019-05-21T04:19:22.776Z,28.1
2019-05-21T04:20:25.203Z,28.1
2019-05-21T04:21:27.640Z,28.1
2019-05-21T04:22:29.803Z,28.1
2019-05-21T04:23:32.229Z,28
2019-05-21T04:24:34.683Z,28.1
2019-05-21T04:25:37.116Z,28.1
2019-05-21T04:26:39.557Z,28.1
2019-05-21T04:27:41.729Z,28
2019-05-21T04:28:44.204Z,28
2019-05-21T04:29:46.634Z,28
2019-05-21T04:30:49.104Z,27.9
2019-05-21T04:31:51.549Z,28.1
2019-05-21T04:32:53.706Z,28
2019-05-21T04:33:55.874Z,28.2
2019-05-21T04:34:58.318Z,27.9
2019-05-21T04:36:00.739Z,28.2
2019-05-21T04:37:10.254Z,28.2
2019-05-21T04:38:07.613Z,28.3
2019-05-21T04:39:10.112Z,28.1
2019-05-21T04:40:12.459Z,28.1
2019-05-21T04:41:14.896Z,28
2019-05-21T04:42:17.337Z,28.1
2019-05-21T04:43:20.706Z,28.1
2019-05-21T04:44:23.135Z,28.1
2019-05-21T04:45:25.570Z,28
2019-05-21T04:46:27.474Z,28
2019-05-21T04:47:29.906Z,28
2019-05-21T04:48:32.334Z,28.2
2019-05-21T04:49:34.752Z,28.1
2019-05-21T04:50:37.409Z,28.2
2019-05-21T04:51:39.838Z,28.1
2019-05-21T04:52:42.263Z,28.2
2019-05-21T04:53:44.443Z,28
2019-05-21T04:54:46.866Z,28
2019-05-21T04:55:49.294Z,28
2019-05-21T04:56:51.744Z,28
2019-05-21T04:57:53.917Z,28.2
2019-05-21T04:58:56.086Z,28.2
2019-05-21T04:59:58.521Z,28.2
2019-05-21T05:01:00.686Z,28
2019-05-21T05:02:03.256Z,28
2019-05-21T05:03:05.629Z,28.1
2019-05-21T05:04:08.244Z,28
2019-05-21T05:05:10.688Z,27.8
2019-05-21T05:06:13.118Z,28
2019-05-21T05:07:27.356Z,27.9
2019-05-21T05:08:20.524Z,28.1
2019-05-21T05:09:22.954Z,28.1
2019-05-21T05:10:26.388Z,27.9
2019-05-21T05:11:28.647Z,28.1
2019-05-21T05:12:31.367Z,28.2
2019-05-21T05:13:33.878Z,28.1
2019-05-21T05:14:36.493Z,28
2019-05-21T05:15:38.945Z,28
2019-05-21T05:16:41.982Z,28
2019-05-21T05:17:44.115Z,28
2019-05-21T05:18:46.557Z,28
2019-05-21T05:19:48.674Z,27.9
2019-05-21T05:20:50.830Z,28.2
2019-05-21T05:21:53.256Z,28
2019-05-21T05:22:55.397Z,28.1
2019-05-21T05:23:57.849Z,28
2019-05-21T05:25:00.337Z,28.1
2019-05-21T05:26:03.023Z,27.8
2019-05-21T05:27:05.177Z,28.1
2019-05-21T05:28:07.405Z,27.8
2019-05-21T05:29:09.595Z,27.9
2019-05-21T05:30:12.027Z,28
2019-05-21T05:31:15.322Z,27.9
2019-05-21T05:32:17.707Z,28.2
2019-05-21T05:33:19.835Z,28
2019-05-21T05:34:22.263Z,28
2019-05-21T05:35:24.776Z,28.1
2019-05-21T05:36:26.664Z,28.2
2019-05-21T05:37:42.717Z,28.1
2019-05-21T05:38:34.071Z,28
2019-05-21T05:39:36.505Z,28.1
2019-05-21T05:40:38.406Z,28.1
2019-05-21T05:41:40.849Z,27.9
2019-05-21T05:42:43.317Z,28.1
2019-05-21T05:43:45.972Z,28
2019-05-21T05:44:48.117Z,28.1
2019-05-21T05:45:50.598Z,27.9
2019-05-21T05:46:53.062Z,28.1
2019-05-21T05:47:55.507Z,28.1
2019-05-21T05:48:57.673Z,28
2019-05-21T05:50:03.137Z,28.2
2019-05-21T05:51:04.991Z,27.9
2019-05-21T05:52:07.145Z,28
2019-05-21T05:53:09.051Z,28.2
2019-05-21T05:54:11.478Z,28
2019-05-21T05:55:13.907Z,28.1
2019-05-21T05:56:16.340Z,28
2019-05-21T05:57:18.773Z,28
2019-05-21T05:58:21.196Z,28.1
2019-05-21T05:59:23.697Z,28.2
2019-05-21T06:00:25.581Z,27.9
2019-05-21T06:01:28.021Z,27.9
2019-05-21T06:02:30.248Z,28.1
2019-05-21T06:03:32.688Z,28
2019-05-21T06:04:35.237Z,28
2019-05-21T06:05:37.851Z,28
2019-05-21T06:06:40.375Z,28
2019-05-21T06:07:42.865Z,28.1
2019-05-21T06:08:48.324Z,28
2019-05-21T06:09:50.272Z,27.9
2019-05-21T06:10:52.432Z,27.8
2019-05-21T06:11:54.605Z,28
2019-05-21T06:12:57.047Z,28.2
2019-05-21T06:13:59.219Z,28
2019-05-21T06:15:01.468Z,28.1
2019-05-21T06:16:05.315Z,27.7
2019-05-21T06:17:07.493Z,28.1
2019-05-21T06:18:09.923Z,28.2
2019-05-21T06:19:12.091Z,27.9
2019-05-21T06:20:14.530Z,27.7
2019-05-21T06:21:16.686Z,27.8
2019-05-21T06:22:19.135Z,28
2019-05-21T06:23:21.560Z,27.6
2019-05-21T06:24:23.996Z,27.8
2019-05-21T06:25:26.428Z,28.1
2019-05-21T06:26:28.671Z,28.1
2019-05-21T06:27:31.102Z,28.2
2019-05-21T06:28:33.589Z,28
2019-05-21T06:29:39.153Z,28.1
2019-05-21T06:30:40.460Z,27.9
2019-05-21T06:31:42.897Z,27.9
2019-05-21T06:32:45.327Z,27.9
2019-05-21T06:33:47.745Z,28
2019-05-21T06:34:49.634Z,27.8
2019-05-21T06:35:51.816Z,27.9
2019-05-21T06:36:54.267Z,27.8
2019-05-21T06:37:56.695Z,28.2
2019-05-21T06:38:59.165Z,27.8
2019-05-21T06:40:01.334Z,27.9
2019-05-21T06:41:03.192Z,27.8
2019-05-21T06:42:05.525Z,27.7
2019-05-21T06:43:08.009Z,28
2019-05-21T06:44:10.451Z,27.7
2019-05-21T06:45:12.914Z,27.9
2019-05-21T06:46:15.388Z,27.9
2019-05-21T06:47:17.574Z,27.9
2019-05-21T06:48:19.992Z,28
2019-05-21T06:49:22.157Z,27.7
2019-05-21T06:50:24.579Z,28
2019-05-21T06:51:27.027Z,27.8
2019-05-21T06:52:29.189Z,27.9
2019-05-21T06:53:31.347Z,27.6
2019-05-21T06:54:33.506Z,27.7
2019-05-21T06:55:35.373Z,27.9
2019-05-21T06:56:37.547Z,27.9
2019-05-21T06:57:39.976Z,27.9
2019-05-21T06:58:42.142Z,28
2019-05-21T06:59:44.317Z,27.8
2019-05-21T07:00:46.766Z,27.7
2019-05-21T07:01:48.928Z,28
2019-05-21T07:02:51.087Z,27.8
2019-05-21T07:03:53.515Z,28.3
2019-05-21T07:04:55.942Z,27.8
2019-05-21T07:05:59.511Z,28.2
2019-05-21T07:07:02.168Z,27.8
2019-05-21T07:08:04.335Z,27.9
2019-05-21T07:09:06.194Z,27.9
2019-05-21T07:10:08.627Z,27.9
2019-05-21T07:11:10.801Z,28
2019-05-21T07:12:13.307Z,27.9
2019-05-21T07:13:15.461Z,27.9
2019-05-21T07:14:17.921Z,27.7
2019-05-21T07:15:20.407Z,27.8
2019-05-21T07:16:22.321Z,28
2019-05-21T07:17:24.765Z,28.1
2019-05-21T07:18:27.180Z,27.8
2019-05-21T07:19:29.343Z,27.7
2019-05-21T07:20:31.233Z,27.8
2019-05-21T07:21:33.674Z,28
2019-05-21T07:22:36.099Z,28
2019-05-21T07:23:38.736Z,28.1
2019-05-21T07:24:40.624Z,28.1
2019-05-21T07:25:42.825Z,27.9
2019-05-21T07:26:45.271Z,27.8
2019-05-21T07:27:47.701Z,28
2019-05-21T07:28:49.578Z,27.9
2019-05-21T07:29:58.109Z,27.9
2019-05-21T07:31:00.545Z,28
2019-05-21T07:32:02.697Z,27.8
2019-05-21T07:33:05.354Z,27.7
2019-05-21T07:34:09.393Z,27.7
2019-05-21T07:35:11.562Z,27.8
2019-05-21T07:36:14.021Z,27.8
2019-05-21T07:37:16.172Z,27.8
2019-05-21T07:38:18.598Z,28.1
2019-05-21T07:39:20.819Z,28
2019-05-21T07:40:23.038Z,27.9
2019-05-21T07:41:25.457Z,27.8
2019-05-21T07:42:27.689Z,27.8
2019-05-21T07:43:30.249Z,28
2019-05-21T07:44:32.452Z,27.8
2019-05-21T07:45:35.485Z,27.9
2019-05-21T07:46:39.584Z,27.7
2019-05-21T07:47:41.982Z,27.9
2019-05-21T07:48:43.878Z,27.8
2019-05-21T07:49:46.315Z,27.8
2019-05-21T07:50:48.449Z,28
2019-05-21T07:51:51.431Z,27.8
2019-05-21T07:52:53.855Z,28
2019-05-21T07:53:56.035Z,28
2019-05-21T07:54:58.472Z,27.7
2019-05-21T07:56:00.350Z,27.7
2019-05-21T07:57:02.703Z,27.7
2019-05-21T07:58:05.215Z,28
2019-05-21T07:59:07.340Z,27.6
2019-05-21T08:00:09.780Z,27.9
2019-05-21T08:01:11.946Z,27.8
2019-05-21T08:02:14.367Z,27.9
2019-05-21T08:03:16.550Z,27.6
2019-05-21T08:04:18.971Z,27.9
2019-05-21T08:05:20.853Z,27.8
2019-05-21T08:06:22.996Z,28
2019-05-21T08:07:25.144Z,28
2019-05-21T08:08:27.578Z,28
2019-05-21T08:09:29.471Z,28.1
2019-05-21T08:10:31.913Z,27.8
2019-05-21T08:11:34.088Z,28
2019-05-21T08:12:39.218Z,28.1
2019-05-21T08:13:41.519Z,27.9
2019-05-21T08:14:43.685Z,27.7
2019-05-21T08:15:46.108Z,27.9
2019-05-21T08:16:48.533Z,28
2019-05-21T08:17:50.704Z,28
2019-05-21T08:18:53.137Z,28.2
2019-05-21T08:20:08.037Z,27.9
2019-05-21T08:21:00.544Z,28
2019-05-21T08:22:02.976Z,28
2019-05-21T08:23:05.410Z,28.1
2019-05-21T08:24:07.846Z,27.9
2019-05-21T08:25:14.014Z,27.9
2019-05-21T08:26:15.314Z,27.8
2019-05-21T08:27:17.737Z,27.9
2019-05-21T08:28:19.897Z,27.8
2019-05-21T08:29:22.321Z,28.2
2019-05-21T08:30:24.797Z,27.9
2019-05-21T08:31:26.986Z,27.9
2019-05-21T08:32:29.487Z,27.9
2019-05-21T08:33:31.635Z,27.9
2019-05-21T08:34:33.800Z,27.9
2019-05-21T08:35:36.225Z,28.1
2019-05-21T08:36:38.677Z,27.8
2019-05-21T08:37:41.116Z,27.9
2019-05-21T08:38:43.572Z,27.9
2019-05-21T08:39:45.447Z,27.8
2019-05-21T08:40:47.865Z,27.9
2019-05-21T08:41:50.032Z,28.1
2019-05-21T08:42:52.496Z,28
2019-05-21T08:43:54.925Z,27.8
2019-05-21T08:44:57.091Z,27.8
2019-05-21T08:45:58.971Z,27.8
2019-05-21T08:47:01.394Z,27.7
2019-05-21T08:48:03.833Z,28
2019-05-21T08:49:06.051Z,28
2019-05-21T08:50:08.249Z,27.9
2019-05-21T08:51:10.785Z,27.8
2019-05-21T08:52:13.290Z,27.7
2019-05-21T08:53:15.729Z,27.8
2019-05-21T08:54:17.878Z,27.9
2019-05-21T08:55:20.304Z,28
2019-05-21T08:56:22.735Z,27.8
2019-05-21T08:57:25.180Z,27.9
2019-05-21T08:58:27.054Z,28
2019-05-21T08:59:29.212Z,27.8
2019-05-21T09:00:31.660Z,27.6
2019-05-21T09:01:33.542Z,27.7
2019-05-21T09:02:35.696Z,28
2019-05-21T09:03:37.867Z,27.9
2019-05-21T09:05:45.167Z,27.9
2019-05-21T09:06:47.596Z,28
2019-05-21T09:07:15.015Z,27.7
2019-05-21T09:07:53.081Z,27.9
2019-05-21T09:08:54.749Z,28.2
2019-05-21T09:09:57.190Z,27.9
2019-05-21T09:10:59.626Z,27.9
2019-05-21T09:12:01.786Z,28
2019-05-21T09:13:04.225Z,27.7
2019-05-21T09:14:06.372Z,27.7
2019-05-21T09:15:08.809Z,27.5
2019-05-21T09:16:10.963Z,27.7
2019-05-21T09:17:13.178Z,27.9
2019-05-21T09:18:15.611Z,27.8
2019-05-21T09:19:18.037Z,27.7
2019-05-21T09:20:19.913Z,27.8
2019-05-21T09:21:21.825Z,27.9
2019-05-21T09:22:23.682Z,27.7
2019-05-21T09:23:26.109Z,27.8
2019-05-21T09:24:28.063Z,27.8
2019-05-21T09:25:30.515Z,28.1
2019-05-21T09:26:32.930Z,28
2019-05-21T09:27:34.803Z,27.8
2019-05-21T09:28:37.294Z,28
2019-05-21T09:29:39.453Z,27.9
2019-05-21T09:30:41.619Z,28
2019-05-21T09:31:43.486Z,27.7
2019-05-21T09:32:45.643Z,27.8
2019-05-21T09:33:47.820Z,27.7
2019-05-21T09:34:49.700Z,28.1
2019-05-21T09:35:51.851Z,27.8
2019-05-21T09:36:54.287Z,27.8
2019-05-21T09:37:56.708Z,27.7
2019-05-21T09:38:58.863Z,28.1
2019-05-21T09:40:01.301Z,27.8
2019-05-21T09:41:04.078Z,27.9
2019-05-21T09:42:05.955Z,27.9
2019-05-21T09:43:08.444Z,27.8
2019-05-21T09:44:10.861Z,27.8
2019-05-21T09:45:13.028Z,27.7
2019-05-21T09:46:15.174Z,27.7
2019-05-21T09:47:17.313Z,27.7
2019-05-21T09:48:19.495Z,27.7
2019-05-21T09:49:21.948Z,28
2019-05-21T09:50:24.123Z,27.9
2019-05-21T09:51:25.994Z,27.9
2019-05-21T09:52:28.442Z,27.7
2019-05-21T09:53:30.384Z,27.8
2019-05-21T09:54:32.283Z,27.9
2019-05-21T09:55:34.420Z,28
2019-05-21T09:56:36.853Z,27.9
2019-05-21T09:57:38.974Z,28
2019-05-21T09:58:41.126Z,27.8
2019-05-21T09:59:43.567Z,27.8
2019-05-21T10:00:45.735Z,28
2019-05-21T10:01:48.613Z,27.9
2019-05-21T10:02:51.060Z,27.8
2019-05-21T10:03:53.208Z,27.9
2019-05-21T10:04:55.651Z,28
2019-05-21T10:05:58.077Z,27.9
2019-05-21T10:07:00.248Z,27.7
2019-05-21T10:08:02.741Z,27.7
2019-05-21T10:09:05.238Z,27.8
2019-05-21T10:10:07.414Z,27.9
2019-05-21T10:11:09.613Z,27.8
2019-05-21T10:12:11.842Z,27.8
2019-05-21T10:13:13.461Z,28.2
2019-05-21T10:14:15.894Z,28
2019-05-21T10:15:18.354Z,28
2019-05-21T10:16:20.815Z,27.9
2019-05-21T10:17:22.980Z,27.8
2019-05-21T10:18:25.158Z,28.1
2019-05-21T10:19:27.060Z,27.9
2019-05-21T10:20:29.209Z,27.8
2019-05-21T10:21:31.375Z,27.9
2019-05-21T10:22:33.517Z,27.8
2019-05-21T10:23:35.943Z,28.1
2019-05-21T10:24:37.540Z,28
2019-05-21T10:25:39.447Z,28
2019-05-21T10:26:41.883Z,27.9
2019-05-21T10:27:44.048Z,28.1
2019-05-21T10:28:46.551Z,28.1
2019-05-21T10:29:48.990Z,28
2019-05-21T10:30:51.147Z,27.8
2019-05-21T10:31:53.592Z,28
2019-05-21T10:32:56.043Z,27.9
2019-05-21T10:33:58.216Z,28
2019-05-21T10:35:00.096Z,28.1
2019-05-21T10:36:02.803Z,28.1
2019-05-21T10:37:04.978Z,27.9
2019-05-21T10:38:07.404Z,27.9
2019-05-21T10:39:09.289Z,28
2019-05-21T10:40:11.712Z,28
2019-05-21T10:41:13.866Z,27.9
2019-05-21T10:42:16.304Z,28
2019-05-21T10:43:18.731Z,28
2019-05-21T10:44:21.165Z,28
2019-05-21T10:45:23.600Z,28
2019-05-21T10:46:26.034Z,27.9
2019-05-21T10:47:28.478Z,27.9
2019-05-21T10:48:30.996Z,28
2019-05-21T10:49:32.884Z,28.1
2019-05-21T10:50:35.344Z,27.9
2019-05-21T10:51:37.758Z,28.1
2019-05-21T10:52:40.204Z,27.8
2019-05-21T10:53:42.470Z,28
2019-05-21T10:54:44.625Z,27.9
2019-05-21T10:55:47.053Z,27.9
2019-05-21T10:56:49.487Z,27.9
2019-05-21T10:57:51.909Z,28.1
2019-05-21T10:58:53.765Z,27.9
2019-05-21T10:59:55.933Z,27.9
2019-05-21T11:00:58.085Z,28.1
2019-05-21T11:02:00.516Z,28
2019-05-21T11:03:02.706Z,28.1
2019-05-21T11:04:04.752Z,27.9
2019-05-21T11:05:06.654Z,27.9
2019-05-21T11:06:10.341Z,27.9
2019-05-21T11:07:12.763Z,27.9
2019-05-21T11:08:24.256Z,28.1
2019-05-21T11:09:19.905Z,27.9
2019-05-21T11:10:22.116Z,28.1
2019-05-21T11:11:24.546Z,27.8
2019-05-21T11:12:26.701Z,27.8
2019-05-21T11:13:29.136Z,27.8
2019-05-21T11:14:31.620Z,28.1
2019-05-21T11:15:34.045Z,27.9
2019-05-21T11:16:36.486Z,27.9
2019-05-21T11:17:49.902Z,28
2019-05-21T11:18:43.625Z,28
2019-05-21T11:19:46.053Z,27.8
2019-05-21T11:20:48.016Z,28.2
2019-05-21T11:21:50.171Z,28
2019-05-21T11:22:52.602Z,28
2019-05-21T11:23:54.801Z,27.9
2019-05-21T11:24:57.665Z,27.9
2019-05-21T11:25:59.821Z,28.1
2019-05-21T11:27:04.539Z,27.8
2019-05-21T11:28:06.697Z,28.2
2019-05-21T11:29:08.861Z,27.8
2019-05-21T11:30:11.290Z,28
2019-05-21T11:31:13.711Z,27.9
2019-05-21T11:32:16.288Z,28
2019-05-21T11:33:18.456Z,27.8
2019-05-21T11:34:20.894Z,28.2
2019-05-21T11:35:22.848Z,28
2019-05-21T11:36:25.038Z,28.1
2019-05-21T11:37:27.203Z,27.8
2019-05-21T11:38:39.350Z,27.8
2019-05-21T11:39:34.625Z,28.1
2019-05-21T11:40:37.335Z,27.9
2019-05-21T11:41:39.763Z,27.9
2019-05-21T11:42:42.216Z,27.9
2019-05-21T11:43:44.838Z,27.9
2019-05-21T11:44:46.712Z,27.7
2019-05-21T11:45:49.135Z,27.9
2019-05-21T11:46:51.557Z,28
2019-05-21T11:47:54.785Z,28
2019-05-21T11:48:57.398Z,27.7
2019-05-21T11:49:59.812Z,27.8
2019-05-21T11:51:01.725Z,27.9
2019-05-21T11:52:04.192Z,28
2019-05-21T11:53:07.020Z,28
2019-05-21T11:54:09.434Z,27.9
2019-05-21T11:55:12.187Z,27.8
2019-05-21T11:56:14.360Z,27.9
2019-05-21T11:57:16.782Z,27.8
2019-05-21T11:58:18.961Z,27.9
2019-05-21T11:59:21.581Z,28
2019-05-21T12:00:23.754Z,27.8
2019-05-21T12:01:25.960Z,27.9
2019-05-21T12:02:27.852Z,27.8
2019-05-21T12:03:29.736Z,27.5
2019-05-21T12:04:31.905Z,28
2019-05-21T12:05:34.313Z,27.9
2019-05-21T12:06:36.859Z,27.6
2019-05-21T12:07:39.373Z,27.8
2019-05-21T12:08:55.394Z,27.9
2019-05-21T12:09:46.923Z,27.9
2019-05-21T12:10:48.534Z,27.7
2019-05-21T12:11:50.965Z,28
2019-05-21T12:12:53.397Z,27.6
2019-05-21T12:13:55.860Z,27.9
2019-05-21T12:14:58.012Z,27.9
2019-05-21T12:15:59.904Z,27.9
2019-05-21T12:17:02.347Z,28
2019-05-21T12:18:04.516Z,28.1
2019-05-21T12:19:08.086Z,27.6
2019-05-21T12:20:10.626Z,27.8
2019-05-21T12:21:12.761Z,27.9
2019-05-21T12:22:15.194Z,27.6
2019-05-21T12:23:17.616Z,27.9
2019-05-21T12:24:20.050Z,27.7
2019-05-21T12:25:22.572Z,27.6
2019-05-21T12:26:25.145Z,28.1
2019-05-21T12:27:27.302Z,27.8
2019-05-21T12:28:29.749Z,27.8
2019-05-21T12:29:34.288Z,28.1
2019-05-21T12:30:36.349Z,27.7
2019-05-21T12:31:38.790Z,27.8
2019-05-21T12:32:40.976Z,28
2019-05-21T12:33:43.460Z,27.9
2019-05-21T12:34:45.878Z,28
2019-05-21T12:35:48.317Z,27.9
2019-05-21T12:36:50.739Z,27.8
2019-05-21T12:37:52.904Z,27.8
2019-05-21T12:38:55.338Z,27.6
2019-05-21T12:40:01.281Z,27.7
2019-05-21T12:41:03.595Z,28.1
2019-05-21T12:42:06.067Z,28
2019-05-21T12:43:08.383Z,28
2019-05-21T12:44:10.668Z,27.8
2019-05-21T12:45:12.555Z,28
2019-05-21T12:46:14.994Z,28.2
2019-05-21T12:47:17.159Z,28
2019-05-21T12:48:19.576Z,28.1
2019-05-21T12:49:21.717Z,27.7
2019-05-21T12:50:24.154Z,28.2
2019-05-21T12:51:26.650Z,28
2019-05-21T12:52:29.087Z,27.9
2019-05-21T12:53:35.250Z,27.9
2019-05-21T12:54:37.665Z,28
2019-05-21T12:55:40.383Z,27.7
2019-05-21T12:56:42.278Z,28
2019-05-21T12:57:44.155Z,28
2019-05-21T12:58:46.595Z,27.9
2019-05-21T12:59:49.030Z,27.9
2019-05-21T13:00:51.544Z,28
2019-05-21T13:01:53.975Z,27.7
2019-05-21T13:02:56.110Z,28.2
2019-05-21T13:03:57.912Z,27.8
2019-05-21T13:05:00.338Z,28
2019-05-21T13:06:02.677Z,27.9
2019-05-21T13:07:05.246Z,27.8
2019-05-21T13:08:07.418Z,27.8
2019-05-21T13:09:09.855Z,27.9
2019-05-21T13:10:12.366Z,27.8
2019-05-21T13:11:14.523Z,27.6
2019-05-21T13:12:16.679Z,27.8
2019-05-21T13:13:19.102Z,27.8
2019-05-21T13:14:21.268Z,27.8
2019-05-21T13:15:23.476Z,27.8
2019-05-21T13:16:25.906Z,28.1
2019-05-21T13:17:28.057Z,28.1
2019-05-21T13:18:30.203Z,27.9
2019-05-21T13:19:32.396Z,27.8
2019-05-21T13:20:34.847Z,28
2019-05-21T13:21:37.277Z,27.9
2019-05-21T13:22:39.487Z,27.8
2019-05-21T13:23:41.992Z,28
2019-05-21T13:24:44.469Z,27.7
2019-05-21T13:25:46.421Z,27.9
2019-05-21T13:26:48.858Z,28
2019-05-21T13:27:51.014Z,27.8
2019-05-21T13:28:53.166Z,27.9
2019-05-21T13:29:55.700Z,27.9
2019-05-21T13:30:57.923Z,27.4
2019-05-21T13:32:00.348Z,27.7
2019-05-21T13:33:02.483Z,27.7
2019-05-21T13:34:04.924Z,27.8
2019-05-21T13:35:07.137Z,27.8
2019-05-21T13:36:09.698Z,27.6
2019-05-21T13:37:12.305Z,27.7
2019-05-21T13:38:14.453Z,27.7
2019-05-21T13:39:16.885Z,27.7
2019-05-21T13:40:18.792Z,27.7
2019-05-21T13:41:20.974Z,27.8
2019-05-21T13:42:23.406Z,27.7
2019-05-21T13:43:25.837Z,27.8
2019-05-21T13:44:28.270Z,28
2019-05-21T13:45:30.713Z,27.7
2019-05-21T13:46:35.517Z,27.7
2019-05-21T13:47:38.142Z,27.7
2019-05-21T13:48:40.030Z,27.8
2019-05-21T13:49:42.453Z,27.8
2019-05-21T13:50:44.607Z,27.8
2019-05-21T13:51:46.738Z,27.9
2019-05-21T13:52:49.167Z,28.1
2019-05-21T13:53:52.047Z,27.7
2019-05-21T13:54:54.550Z,27.9
2019-05-21T13:55:56.706Z,27.6
2019-05-21T13:56:58.866Z,27.6
2019-05-21T13:58:00.775Z,27.8
2019-05-21T13:59:02.940Z,27.6
2019-05-21T14:00:05.428Z,27.7
2019-05-21T14:01:08.289Z,27.9
2019-05-21T14:02:10.628Z,27.5